sensor_id;sensor_type;location;lat;lon;timestamp;P1;durP1;ratioP1;P2;durP2;ratioP2
20245;SDS011;10281;54.406;18.556;2022-11-20T00:00:51;27.37;;;17.00;;
20245;SDS011;10281;54.406;18.556;2022-11-20T00:03:18;27.70;;;17.23;;
20245;SDS011;10281;54.406;18.556;2022-11-20T00:05:45;24.13;;;16.43;;
20245;SDS011;10281;54.406;18.556;2022-11-20T00:08:12;26.07;;;16.50;;
20245;SDS011;10281;54.406;18.556;2022-11-20T00:10:39;25.00;;;16.90;;
20245;SDS011;10281;54.406;18.556;2022-11-20T00:13:06;27.30;;;17.27;;
20245;SDS011;10281;54.406;18.556;2022-11-20T00:15:33;26.10;;;17.53;;
20245;SDS011;10281;54.406;18.556;2022-11-20T00:18:00;28.40;;;18.23;;
20245;SDS011;10281;54.406;18.556;2022-11-20T00:20:26;28.60;;;17.33;;
20245;SDS011;10281;54.406;18.556;2022-11-20T00:22:53;29.10;;;18.40;;
20245;SDS011;10281;54.406;18.556;2022-11-20T00:25:19;30.13;;;18.77;;
20245;SDS011;10281;54.406;18.556;2022-11-20T00:27:46;31.93;;;19.50;;
20245;SDS011;10281;54.406;18.556;2022-11-20T00:30:13;27.73;;;18.00;;
20245;SDS011;10281;54.406;18.556;2022-11-20T00:32:39;31.43;;;18.60;;
20245;SDS011;10281;54.406;18.556;2022-11-20T00:35:06;29.57;;;18.47;;
20245;SDS011;10281;54.406;18.556;2022-11-20T00:37:33;31.03;;;18.73;;
20245;SDS011;10281;54.406;18.556;2022-11-20T00:39:59;29.23;;;17.97;;
20245;SDS011;10281;54.406;18.556;2022-11-20T00:42:26;28.20;;;18.27;;
20245;SDS011;10281;54.406;18.556;2022-11-20T00:44:52;31.37;;;18.97;;
20245;SDS011;10281;54.406;18.556;2022-11-20T00:47:19;31.83;;;19.33;;
20245;SDS011;10281;54.406;18.556;2022-11-20T00:49:46;30.63;;;19.33;;
20245;SDS011;10281;54.406;18.556;2022-11-20T00:52:12;32.37;;;19.63;;
20245;SDS011;10281;54.406;18.556;2022-11-20T00:54:39;27.40;;;18.43;;
20245;SDS011;10281;54.406;18.556;2022-11-20T00:57:06;30.10;;;18.83;;
20245;SDS011;10281;54.406;18.556;2022-11-20T00:59:33;29.73;;;18.07;;
20245;SDS011;10281;54.406;18.556;2022-11-20T01:01:59;30.07;;;18.80;;
20245;SDS011;10281;54.406;18.556;2022-11-20T01:04:26;33.17;;;18.43;;
20245;SDS011;10281;54.406;18.556;2022-11-20T01:06:53;31.63;;;18.73;;
20245;SDS011;10281;54.406;18.556;2022-11-20T01:09:20;29.67;;;18.97;;
20245;SDS011;10281;54.406;18.556;2022-11-20T01:11:47;33.13;;;18.67;;
20245;SDS011;10281;54.406;18.556;2022-11-20T01:14:14;30.17;;;18.57;;
20245;SDS011;10281;54.406;18.556;2022-11-20T01:16:43;33.07;;;18.73;;
20245;SDS011;10281;54.406;18.556;2022-11-20T01:19:13;32.07;;;19.07;;
20245;SDS011;10281;54.406;18.556;2022-11-20T01:21:42;31.90;;;18.97;;
20245;SDS011;10281;54.406;18.556;2022-11-20T01:24:11;29.50;;;18.17;;
20245;SDS011;10281;54.406;18.556;2022-11-20T01:26:39;28.30;;;17.80;;
20245;SDS011;10281;54.406;18.556;2022-11-20T01:29:08;28.37;;;18.40;;
20245;SDS011;10281;54.406;18.556;2022-11-20T01:31:41;34.57;;;18.30;;
20245;SDS011;10281;54.406;18.556;2022-11-20T01:34:11;27.83;;;18.13;;
20245;SDS011;10281;54.406;18.556;2022-11-20T01:36:41;31.10;;;17.80;;
20245;SDS011;10281;54.406;18.556;2022-11-20T01:39:12;28.17;;;17.63;;
20245;SDS011;10281;54.406;18.556;2022-11-20T01:41:40;28.30;;;18.13;;
20245;SDS011;10281;54.406;18.556;2022-11-20T01:44:13;30.00;;;18.67;;
20245;SDS011;10281;54.406;18.556;2022-11-20T01:46:42;29.97;;;18.10;;
20245;SDS011;10281;54.406;18.556;2022-11-20T01:49:20;32.77;;;18.40;;
20245;SDS011;10281;54.406;18.556;2022-11-20T01:51:50;29.27;;;19.10;;
20245;SDS011;10281;54.406;18.556;2022-11-20T01:54:21;28.83;;;18.00;;
20245;SDS011;10281;54.406;18.556;2022-11-20T01:56:50;28.57;;;17.80;;
20245;SDS011;10281;54.406;18.556;2022-11-20T01:59:19;29.13;;;17.87;;
20245;SDS011;10281;54.406;18.556;2022-11-20T02:01:46;30.70;;;17.87;;
20245;SDS011;10281;54.406;18.556;2022-11-20T02:04:13;29.17;;;17.33;;
20245;SDS011;10281;54.406;18.556;2022-11-20T02:06:42;31.23;;;18.23;;
20245;SDS011;10281;54.406;18.556;2022-11-20T02:09:10;30.27;;;18.23;;
20245;SDS011;10281;54.406;18.556;2022-11-20T02:11:37;29.60;;;17.73;;
20245;SDS011;10281;54.406;18.556;2022-11-20T02:14:04;27.47;;;17.43;;
20245;SDS011;10281;54.406;18.556;2022-11-20T02:16:31;30.00;;;17.87;;
20245;SDS011;10281;54.406;18.556;2022-11-20T02:19:01;27.73;;;17.10;;
20245;SDS011;10281;54.406;18.556;2022-11-20T02:21:37;27.33;;;17.40;;
20245;SDS011;10281;54.406;18.556;2022-11-20T02:24:11;28.40;;;17.13;;
20245;SDS011;10281;54.406;18.556;2022-11-20T02:26:42;23.80;;;16.57;;
20245;SDS011;10281;54.406;18.556;2022-11-20T02:29:15;27.23;;;16.17;;
20245;SDS011;10281;54.406;18.556;2022-11-20T02:31:43;26.40;;;16.37;;
20245;SDS011;10281;54.406;18.556;2022-11-20T02:34:11;25.43;;;16.20;;
20245;SDS011;10281;54.406;18.556;2022-11-20T02:36:39;27.13;;;16.30;;
20245;SDS011;10281;54.406;18.556;2022-11-20T02:39:08;26.13;;;16.50;;
20245;SDS011;10281;54.406;18.556;2022-11-20T02:41:37;26.60;;;16.00;;
20245;SDS011;10281;54.406;18.556;2022-11-20T02:44:04;27.53;;;16.60;;
20245;SDS011;10281;54.406;18.556;2022-11-20T02:46:31;29.17;;;17.33;;
20245;SDS011;10281;54.406;18.556;2022-11-20T02:48:58;26.13;;;16.33;;
20245;SDS011;10281;54.406;18.556;2022-11-20T02:51:26;27.07;;;16.60;;
20245;SDS011;10281;54.406;18.556;2022-11-20T02:53:53;25.83;;;16.07;;
20245;SDS011;10281;54.406;18.556;2022-11-20T02:56:19;23.30;;;15.13;;
20245;SDS011;10281;54.406;18.556;2022-11-20T02:58:46;25.33;;;15.70;;
20245;SDS011;10281;54.406;18.556;2022-11-20T03:01:13;29.53;;;16.27;;
20245;SDS011;10281;54.406;18.556;2022-11-20T03:03:39;25.30;;;16.20;;
20245;SDS011;10281;54.406;18.556;2022-11-20T03:06:06;26.37;;;15.57;;
20245;SDS011;10281;54.406;18.556;2022-11-20T03:08:33;24.60;;;15.17;;
20245;SDS011;10281;54.406;18.556;2022-11-20T03:11:03;24.13;;;15.50;;
20245;SDS011;10281;54.406;18.556;2022-11-20T03:13:31;27.10;;;16.00;;
20245;SDS011;10281;54.406;18.556;2022-11-20T03:15:58;26.23;;;16.57;;
20245;SDS011;10281;54.406;18.556;2022-11-20T03:18:33;27.67;;;15.97;;
20245;SDS011;10281;54.406;18.556;2022-11-20T03:20:59;24.73;;;15.47;;
20245;SDS011;10281;54.406;18.556;2022-11-20T03:23:28;24.60;;;15.07;;
20245;SDS011;10281;54.406;18.556;2022-11-20T03:26:06;25.90;;;15.97;;
20245;SDS011;10281;54.406;18.556;2022-11-20T03:28:30;26.80;;;16.50;;
20245;SDS011;10281;54.406;18.556;2022-11-20T03:30:57;27.07;;;16.97;;
20245;SDS011;10281;54.406;18.556;2022-11-20T03:33:24;27.40;;;16.87;;
20245;SDS011;10281;54.406;18.556;2022-11-20T03:35:54;26.87;;;16.57;;
20245;SDS011;10281;54.406;18.556;2022-11-20T03:38:20;24.57;;;15.57;;
20245;SDS011;10281;54.406;18.556;2022-11-20T03:40:47;25.83;;;15.87;;
20245;SDS011;10281;54.406;18.556;2022-11-20T03:43:14;25.30;;;15.53;;
20245;SDS011;10281;54.406;18.556;2022-11-20T03:45:40;25.27;;;15.70;;
20245;SDS011;10281;54.406;18.556;2022-11-20T03:48:07;23.83;;;14.47;;
20245;SDS011;10281;54.406;18.556;2022-11-20T03:50:34;26.43;;;15.97;;
20245;SDS011;10281;54.406;18.556;2022-11-20T03:53:01;26.30;;;16.07;;
20245;SDS011;10281;54.406;18.556;2022-11-20T03:55:27;23.90;;;15.57;;
20245;SDS011;10281;54.406;18.556;2022-11-20T03:57:54;28.17;;;16.37;;
20245;SDS011;10281;54.406;18.556;2022-11-20T04:00:21;25.73;;;15.50;;
20245;SDS011;10281;54.406;18.556;2022-11-20T04:02:47;26.97;;;16.30;;
20245;SDS011;10281;54.406;18.556;2022-11-20T04:05:14;24.93;;;15.73;;
20245;SDS011;10281;54.406;18.556;2022-11-20T04:07:40;25.37;;;17.03;;
20245;SDS011;10281;54.406;18.556;2022-11-20T04:10:07;24.53;;;16.23;;
20245;SDS011;10281;54.406;18.556;2022-11-20T04:12:34;25.77;;;16.47;;
20245;SDS011;10281;54.406;18.556;2022-11-20T04:15:00;24.70;;;15.80;;
20245;SDS011;10281;54.406;18.556;2022-11-20T04:17:27;23.63;;;14.93;;
20245;SDS011;10281;54.406;18.556;2022-11-20T04:19:53;27.13;;;16.87;;
20245;SDS011;10281;54.406;18.556;2022-11-20T04:22:20;26.97;;;16.17;;
20245;SDS011;10281;54.406;18.556;2022-11-20T04:24:47;25.17;;;15.67;;
20245;SDS011;10281;54.406;18.556;2022-11-20T04:27:13;29.83;;;16.70;;
20245;SDS011;10281;54.406;18.556;2022-11-20T04:29:40;25.13;;;15.30;;
20245;SDS011;10281;54.406;18.556;2022-11-20T04:32:07;29.63;;;17.10;;
20245;SDS011;10281;54.406;18.556;2022-11-20T04:34:33;25.47;;;15.80;;
20245;SDS011;10281;54.406;18.556;2022-11-20T04:37:00;27.47;;;16.13;;
20245;SDS011;10281;54.406;18.556;2022-11-20T04:39:27;27.53;;;16.00;;
20245;SDS011;10281;54.406;18.556;2022-11-20T04:41:53;29.30;;;16.40;;
20245;SDS011;10281;54.406;18.556;2022-11-20T04:44:27;25.17;;;16.27;;
20245;SDS011;10281;54.406;18.556;2022-11-20T04:46:53;25.57;;;15.80;;
20245;SDS011;10281;54.406;18.556;2022-11-20T04:49:20;23.93;;;15.17;;
20245;SDS011;10281;54.406;18.556;2022-11-20T04:51:46;25.07;;;15.73;;
20245;SDS011;10281;54.406;18.556;2022-11-20T04:54:13;29.93;;;16.73;;
20245;SDS011;10281;54.406;18.556;2022-11-20T04:56:40;25.60;;;15.73;;
20245;SDS011;10281;54.406;18.556;2022-11-20T04:59:07;27.63;;;16.80;;
20245;SDS011;10281;54.406;18.556;2022-11-20T05:01:34;30.00;;;16.60;;
20245;SDS011;10281;54.406;18.556;2022-11-20T05:04:01;29.20;;;17.70;;
20245;SDS011;10281;54.406;18.556;2022-11-20T05:06:27;25.27;;;15.83;;
20245;SDS011;10281;54.406;18.556;2022-11-20T05:08:54;27.80;;;17.03;;
20245;SDS011;10281;54.406;18.556;2022-11-20T05:11:21;27.27;;;16.47;;
20245;SDS011;10281;54.406;18.556;2022-11-20T05:13:48;26.23;;;16.47;;
20245;SDS011;10281;54.406;18.556;2022-11-20T05:16:19;27.87;;;18.17;;
20245;SDS011;10281;54.406;18.556;2022-11-20T05:18:49;26.47;;;16.67;;
20245;SDS011;10281;54.406;18.556;2022-11-20T05:21:18;29.80;;;17.33;;
20245;SDS011;10281;54.406;18.556;2022-11-20T05:23:45;28.37;;;17.40;;
20245;SDS011;10281;54.406;18.556;2022-11-20T05:26:15;26.90;;;17.13;;
20245;SDS011;10281;54.406;18.556;2022-11-20T05:28:44;26.03;;;16.67;;
20245;SDS011;10281;54.406;18.556;2022-11-20T05:31:12;30.03;;;17.60;;
20245;SDS011;10281;54.406;18.556;2022-11-20T05:33:41;28.53;;;17.03;;
20245;SDS011;10281;54.406;18.556;2022-11-20T05:36:09;25.90;;;15.07;;
20245;SDS011;10281;54.406;18.556;2022-11-20T05:38:37;28.33;;;16.60;;
20245;SDS011;10281;54.406;18.556;2022-11-20T05:41:05;27.00;;;16.27;;
20245;SDS011;10281;54.406;18.556;2022-11-20T05:43:34;26.87;;;16.10;;
20245;SDS011;10281;54.406;18.556;2022-11-20T05:46:02;28.17;;;16.37;;
20245;SDS011;10281;54.406;18.556;2022-11-20T05:48:30;30.90;;;17.27;;
20245;SDS011;10281;54.406;18.556;2022-11-20T05:50:59;25.53;;;15.60;;
20245;SDS011;10281;54.406;18.556;2022-11-20T05:53:27;28.17;;;16.80;;
20245;SDS011;10281;54.406;18.556;2022-11-20T05:55:59;27.17;;;16.30;;
20245;SDS011;10281;54.406;18.556;2022-11-20T05:58:30;26.57;;;15.90;;
20245;SDS011;10281;54.406;18.556;2022-11-20T06:01:03;27.83;;;15.67;;
20245;SDS011;10281;54.406;18.556;2022-11-20T06:03:34;25.27;;;15.93;;
20245;SDS011;10281;54.406;18.556;2022-11-20T06:06:01;28.83;;;16.23;;
20245;SDS011;10281;54.406;18.556;2022-11-20T06:08:29;26.90;;;16.13;;
20245;SDS011;10281;54.406;18.556;2022-11-20T06:10:55;27.07;;;15.00;;
20245;SDS011;10281;54.406;18.556;2022-11-20T06:13:22;30.30;;;15.50;;
20245;SDS011;10281;54.406;18.556;2022-11-20T06:15:49;29.20;;;16.03;;
20245;SDS011;10281;54.406;18.556;2022-11-20T06:18:17;25.37;;;14.83;;
20245;SDS011;10281;54.406;18.556;2022-11-20T06:20:45;27.10;;;15.63;;
20245;SDS011;10281;54.406;18.556;2022-11-20T06:23:12;26.03;;;16.13;;
20245;SDS011;10281;54.406;18.556;2022-11-20T06:25:39;25.40;;;15.10;;
20245;SDS011;10281;54.406;18.556;2022-11-20T06:28:07;25.77;;;15.57;;
20245;SDS011;10281;54.406;18.556;2022-11-20T06:30:34;26.57;;;15.30;;
20245;SDS011;10281;54.406;18.556;2022-11-20T06:33:01;25.93;;;15.73;;
20245;SDS011;10281;54.406;18.556;2022-11-20T06:35:28;24.57;;;14.57;;
20245;SDS011;10281;54.406;18.556;2022-11-20T06:37:55;28.97;;;16.27;;
20245;SDS011;10281;54.406;18.556;2022-11-20T06:40:22;25.97;;;15.20;;
20245;SDS011;10281;54.406;18.556;2022-11-20T06:42:49;26.57;;;14.83;;
20245;SDS011;10281;54.406;18.556;2022-11-20T06:45:15;27.10;;;15.57;;
20245;SDS011;10281;54.406;18.556;2022-11-20T06:47:43;31.43;;;16.23;;
20245;SDS011;10281;54.406;18.556;2022-11-20T06:50:09;28.20;;;15.60;;
20245;SDS011;10281;54.406;18.556;2022-11-20T06:52:36;26.13;;;15.07;;
20245;SDS011;10281;54.406;18.556;2022-11-20T06:55:03;25.10;;;15.00;;
20245;SDS011;10281;54.406;18.556;2022-11-20T06:57:29;28.37;;;16.07;;
20245;SDS011;10281;54.406;18.556;2022-11-20T06:59:56;28.23;;;17.13;;
20245;SDS011;10281;54.406;18.556;2022-11-20T07:02:23;25.50;;;16.13;;
20245;SDS011;10281;54.406;18.556;2022-11-20T07:04:49;28.77;;;17.30;;
20245;SDS011;10281;54.406;18.556;2022-11-20T07:07:16;29.53;;;16.13;;
20245;SDS011;10281;54.406;18.556;2022-11-20T07:09:42;29.60;;;15.80;;
20245;SDS011;10281;54.406;18.556;2022-11-20T07:12:09;28.80;;;16.63;;
20245;SDS011;10281;54.406;18.556;2022-11-20T07:14:36;30.80;;;18.13;;
20245;SDS011;10281;54.406;18.556;2022-11-20T07:17:03;30.50;;;17.50;;
20245;SDS011;10281;54.406;18.556;2022-11-20T07:19:29;28.83;;;15.97;;
20245;SDS011;10281;54.406;18.556;2022-11-20T07:21:56;32.90;;;18.37;;
20245;SDS011;10281;54.406;18.556;2022-11-20T07:24:23;34.20;;;17.83;;
20245;SDS011;10281;54.406;18.556;2022-11-20T07:26:49;25.60;;;15.17;;
20245;SDS011;10281;54.406;18.556;2022-11-20T07:29:17;28.83;;;16.97;;
20245;SDS011;10281;54.406;18.556;2022-11-20T07:31:43;31.13;;;17.30;;
20245;SDS011;10281;54.406;18.556;2022-11-20T07:34:10;28.27;;;17.20;;
20245;SDS011;10281;54.406;18.556;2022-11-20T07:36:37;30.60;;;17.47;;
20245;SDS011;10281;54.406;18.556;2022-11-20T07:39:04;28.27;;;17.03;;
20245;SDS011;10281;54.406;18.556;2022-11-20T07:41:30;29.87;;;16.93;;
20245;SDS011;10281;54.406;18.556;2022-11-20T07:43:57;32.07;;;17.67;;
20245;SDS011;10281;54.406;18.556;2022-11-20T07:46:24;32.83;;;19.67;;
20245;SDS011;10281;54.406;18.556;2022-11-20T07:48:50;41.93;;;22.13;;
20245;SDS011;10281;54.406;18.556;2022-11-20T07:51:17;32.70;;;17.23;;
20245;SDS011;10281;54.406;18.556;2022-11-20T07:53:44;34.83;;;19.40;;
20245;SDS011;10281;54.406;18.556;2022-11-20T07:56:10;31.73;;;18.93;;
20245;SDS011;10281;54.406;18.556;2022-11-20T07:58:37;28.90;;;17.33;;
20245;SDS011;10281;54.406;18.556;2022-11-20T08:01:04;32.57;;;17.90;;
20245;SDS011;10281;54.406;18.556;2022-11-20T08:03:32;32.60;;;18.73;;
20245;SDS011;10281;54.406;18.556;2022-11-20T08:06:00;28.40;;;16.77;;
20245;SDS011;10281;54.406;18.556;2022-11-20T08:08:27;28.13;;;17.20;;
20245;SDS011;10281;54.406;18.556;2022-11-20T08:10:56;29.37;;;17.67;;
20245;SDS011;10281;54.406;18.556;2022-11-20T08:13:25;30.83;;;17.40;;
20245;SDS011;10281;54.406;18.556;2022-11-20T08:15:57;31.07;;;18.50;;
20245;SDS011;10281;54.406;18.556;2022-11-20T08:18:23;27.77;;;16.90;;
20245;SDS011;10281;54.406;18.556;2022-11-20T08:20:50;27.00;;;16.40;;
20245;SDS011;10281;54.406;18.556;2022-11-20T08:23:17;30.77;;;17.50;;
20245;SDS011;10281;54.406;18.556;2022-11-20T08:25:43;31.07;;;17.97;;
20245;SDS011;10281;54.406;18.556;2022-11-20T08:28:14;33.60;;;18.77;;
20245;SDS011;10281;54.406;18.556;2022-11-20T08:30:40;32.13;;;18.97;;
20245;SDS011;10281;54.406;18.556;2022-11-20T08:33:08;30.93;;;19.03;;
20245;SDS011;10281;54.406;18.556;2022-11-20T08:35:35;28.73;;;17.53;;
20245;SDS011;10281;54.406;18.556;2022-11-20T08:38:03;31.10;;;18.03;;
20245;SDS011;10281;54.406;18.556;2022-11-20T08:40:31;36.13;;;20.20;;
20245;SDS011;10281;54.406;18.556;2022-11-20T08:42:58;32.03;;;19.27;;
20245;SDS011;10281;54.406;18.556;2022-11-20T08:45:24;31.47;;;18.77;;
20245;SDS011;10281;54.406;18.556;2022-11-20T08:47:51;36.17;;;20.53;;
20245;SDS011;10281;54.406;18.556;2022-11-20T08:50:17;31.43;;;19.07;;
20245;SDS011;10281;54.406;18.556;2022-11-20T08:52:44;30.23;;;17.83;;
20245;SDS011;10281;54.406;18.556;2022-11-20T08:55:11;36.13;;;18.83;;
20245;SDS011;10281;54.406;18.556;2022-11-20T08:57:38;34.73;;;19.47;;
20245;SDS011;10281;54.406;18.556;2022-11-20T09:00:05;37.73;;;21.33;;
20245;SDS011;10281;54.406;18.556;2022-11-20T09:02:34;33.17;;;19.10;;
20245;SDS011;10281;54.406;18.556;2022-11-20T09:05:01;34.27;;;20.03;;
20245;SDS011;10281;54.406;18.556;2022-11-20T09:07:28;39.07;;;21.10;;
20245;SDS011;10281;54.406;18.556;2022-11-20T09:09:55;33.80;;;19.87;;
20245;SDS011;10281;54.406;18.556;2022-11-20T09:12:22;43.00;;;21.10;;
20245;SDS011;10281;54.406;18.556;2022-11-20T09:14:49;39.57;;;21.20;;
20245;SDS011;10281;54.406;18.556;2022-11-20T09:17:15;35.93;;;20.97;;
20245;SDS011;10281;54.406;18.556;2022-11-20T09:19:42;37.20;;;20.57;;
20245;SDS011;10281;54.406;18.556;2022-11-20T09:22:09;39.93;;;21.93;;
20245;SDS011;10281;54.406;18.556;2022-11-20T09:24:35;41.73;;;22.33;;
20245;SDS011;10281;54.406;18.556;2022-11-20T09:27:03;44.60;;;23.97;;
20245;SDS011;10281;54.406;18.556;2022-11-20T09:29:30;44.37;;;25.00;;
20245;SDS011;10281;54.406;18.556;2022-11-20T09:31:57;44.83;;;24.53;;
20245;SDS011;10281;54.406;18.556;2022-11-20T09:34:23;48.87;;;25.20;;
20245;SDS011;10281;54.406;18.556;2022-11-20T09:36:50;44.60;;;23.50;;
20245;SDS011;10281;54.406;18.556;2022-11-20T09:39:17;44.27;;;23.50;;
20245;SDS011;10281;54.406;18.556;2022-11-20T09:45:02;47.63;;;23.80;;
20245;SDS011;10281;54.406;18.556;2022-11-20T09:47:35;43.47;;;23.47;;
20245;SDS011;10281;54.406;18.556;2022-11-20T09:50:41;41.83;;;23.90;;
20245;SDS011;10281;54.406;18.556;2022-11-20T09:52:59;43.80;;;24.20;;
20245;SDS011;10281;54.406;18.556;2022-11-20T09:55:35;46.17;;;23.10;;
20245;SDS011;10281;54.406;18.556;2022-11-20T09:58:05;43.37;;;23.33;;
20245;SDS011;10281;54.406;18.556;2022-11-20T10:00:34;47.23;;;23.40;;
20245;SDS011;10281;54.406;18.556;2022-11-20T10:03:11;47.33;;;23.17;;
20245;SDS011;10281;54.406;18.556;2022-11-20T10:05:46;50.57;;;24.77;;
20245;SDS011;10281;54.406;18.556;2022-11-20T10:08:18;47.77;;;24.30;;
20245;SDS011;10281;54.406;18.556;2022-11-20T10:10:58;51.20;;;24.77;;
20245;SDS011;10281;54.406;18.556;2022-11-20T10:13:35;43.03;;;22.93;;
20245;SDS011;10281;54.406;18.556;2022-11-20T10:16:09;54.33;;;32.23;;
20245;SDS011;10281;54.406;18.556;2022-11-20T10:21:36;43.80;;;23.17;;
20245;SDS011;10281;54.406;18.556;2022-11-20T10:24:30;42.67;;;23.07;;
20245;SDS011;10281;54.406;18.556;2022-11-20T10:27:15;52.77;;;26.47;;
20245;SDS011;10281;54.406;18.556;2022-11-20T10:29:41;46.60;;;24.47;;
20245;SDS011;10281;54.406;18.556;2022-11-20T10:32:14;45.03;;;23.47;;
20245;SDS011;10281;54.406;18.556;2022-11-20T10:34:46;47.27;;;23.60;;
20245;SDS011;10281;54.406;18.556;2022-11-20T10:37:21;54.60;;;24.47;;
20245;SDS011;10281;54.406;18.556;2022-11-20T10:42:53;50.73;;;24.27;;
20245;SDS011;10281;54.406;18.556;2022-11-20T10:45:28;51.57;;;24.67;;
20245;SDS011;10281;54.406;18.556;2022-11-20T10:48:12;52.20;;;25.47;;
20245;SDS011;10281;54.406;18.556;2022-11-20T10:50:45;52.83;;;25.57;;
20245;SDS011;10281;54.406;18.556;2022-11-20T10:53:28;49.30;;;25.43;;
20245;SDS011;10281;54.406;18.556;2022-11-20T10:55:54;44.97;;;23.77;;
20245;SDS011;10281;54.406;18.556;2022-11-20T10:58:28;47.50;;;25.20;;
20245;SDS011;10281;54.406;18.556;2022-11-20T11:03:30;53.13;;;25.73;;
20245;SDS011;10281;54.406;18.556;2022-11-20T11:06:07;49.87;;;24.80;;
20245;SDS011;10281;54.406;18.556;2022-11-20T11:08:37;56.30;;;27.23;;
20245;SDS011;10281;54.406;18.556;2022-11-20T11:11:37;50.20;;;26.13;;
20245;SDS011;10281;54.406;18.556;2022-11-20T11:13:52;48.90;;;25.97;;
20245;SDS011;10281;54.406;18.556;2022-11-20T11:16:24;48.23;;;24.70;;
20245;SDS011;10281;54.406;18.556;2022-11-20T11:19:03;50.83;;;25.70;;
20245;SDS011;10281;54.406;18.556;2022-11-20T11:21:31;49.10;;;25.53;;
20245;SDS011;10281;54.406;18.556;2022-11-20T11:23:59;51.23;;;26.27;;
20245;SDS011;10281;54.406;18.556;2022-11-20T11:26:27;46.80;;;27.00;;
20245;SDS011;10281;54.406;18.556;2022-11-20T11:28:57;55.97;;;26.97;;
20245;SDS011;10281;54.406;18.556;2022-11-20T11:31:25;48.47;;;25.87;;
20245;SDS011;10281;54.406;18.556;2022-11-20T11:36:31;51.10;;;26.17;;
20245;SDS011;10281;54.406;18.556;2022-11-20T11:39:00;56.60;;;25.93;;
20245;SDS011;10281;54.406;18.556;2022-11-20T11:41:30;49.67;;;26.00;;
20245;SDS011;10281;54.406;18.556;2022-11-20T11:44:01;47.90;;;25.97;;
20245;SDS011;10281;54.406;18.556;2022-11-20T11:46:37;49.40;;;26.40;;
20245;SDS011;10281;54.406;18.556;2022-11-20T11:49:15;48.70;;;26.17;;
20245;SDS011;10281;54.406;18.556;2022-11-20T11:51:47;51.33;;;26.90;;
20245;SDS011;10281;54.406;18.556;2022-11-20T11:54:19;53.97;;;27.40;;
20245;SDS011;10281;54.406;18.556;2022-11-20T11:56:48;47.17;;;26.50;;
20245;SDS011;10281;54.406;18.556;2022-11-20T11:59:26;51.43;;;27.83;;
20245;SDS011;10281;54.406;18.556;2022-11-20T12:05:02;45.50;;;25.77;;
20245;SDS011;10281;54.406;18.556;2022-11-20T12:07:37;52.80;;;27.83;;
20245;SDS011;10281;54.406;18.556;2022-11-20T12:10:07;54.30;;;29.17;;
20245;SDS011;10281;54.406;18.556;2022-11-20T12:12:44;47.33;;;25.43;;
20245;SDS011;10281;54.406;18.556;2022-11-20T12:15:16;49.13;;;27.30;;
20245;SDS011;10281;54.406;18.556;2022-11-20T12:17:43;46.87;;;27.47;;
20245;SDS011;10281;54.406;18.556;2022-11-20T12:20:12;49.87;;;27.83;;
20245;SDS011;10281;54.406;18.556;2022-11-20T12:22:47;47.37;;;28.37;;
20245;SDS011;10281;54.406;18.556;2022-11-20T12:25:18;47.67;;;27.13;;
20245;SDS011;10281;54.406;18.556;2022-11-20T12:30:23;49.93;;;28.90;;
20245;SDS011;10281;54.406;18.556;2022-11-20T12:36:13;50.17;;;28.97;;
20245;SDS011;10281;54.406;18.556;2022-11-20T12:38:41;51.87;;;29.30;;
20245;SDS011;10281;54.406;18.556;2022-11-20T12:41:25;49.83;;;28.23;;
20245;SDS011;10281;54.406;18.556;2022-11-20T12:47:12;53.47;;;29.73;;
20245;SDS011;10281;54.406;18.556;2022-11-20T12:49:48;44.70;;;27.33;;
20245;SDS011;10281;54.406;18.556;2022-11-20T12:52:25;51.40;;;29.33;;
20245;SDS011;10281;54.406;18.556;2022-11-20T12:55:00;53.83;;;31.10;;
20245;SDS011;10281;54.406;18.556;2022-11-20T12:57:37;58.20;;;30.73;;
20245;SDS011;10281;54.406;18.556;2022-11-20T13:00:11;55.00;;;30.80;;
20245;SDS011;10281;54.406;18.556;2022-11-20T13:03:16;48.93;;;28.57;;
20245;SDS011;10281;54.406;18.556;2022-11-20T13:05:41;50.80;;;27.87;;
20245;SDS011;10281;54.406;18.556;2022-11-20T13:08:16;51.53;;;29.43;;
20245;SDS011;10281;54.406;18.556;2022-11-20T13:11:03;55.97;;;32.57;;
20245;SDS011;10281;54.406;18.556;2022-11-20T13:19:17;60.13;;;32.37;;
20245;SDS011;10281;54.406;18.556;2022-11-20T13:21:46;59.17;;;31.80;;
20245;SDS011;10281;54.406;18.556;2022-11-20T13:24:20;55.53;;;31.80;;
20245;SDS011;10281;54.406;18.556;2022-11-20T13:29:26;94.03;;;47.83;;
20245;SDS011;10281;54.406;18.556;2022-11-20T13:32:01;65.57;;;35.43;;
20245;SDS011;10281;54.406;18.556;2022-11-20T13:34:32;56.53;;;30.57;;
20245;SDS011;10281;54.406;18.556;2022-11-20T13:36:59;50.43;;;29.93;;
20245;SDS011;10281;54.406;18.556;2022-11-20T13:39:27;53.93;;;31.30;;
20245;SDS011;10281;54.406;18.556;2022-11-20T13:41:57;57.30;;;31.77;;
20245;SDS011;10281;54.406;18.556;2022-11-20T13:44:34;59.07;;;32.57;;
20245;SDS011;10281;54.406;18.556;2022-11-20T13:47:03;57.63;;;33.47;;
20245;SDS011;10281;54.406;18.556;2022-11-20T13:49:32;59.00;;;32.63;;
20245;SDS011;10281;54.406;18.556;2022-11-20T13:52:20;58.27;;;32.77;;
20245;SDS011;10281;54.406;18.556;2022-11-20T13:54:43;52.80;;;29.23;;
20245;SDS011;10281;54.406;18.556;2022-11-20T13:57:25;49.07;;;29.27;;
20245;SDS011;10281;54.406;18.556;2022-11-20T13:59:57;49.87;;;29.37;;
20245;SDS011;10281;54.406;18.556;2022-11-20T14:02:26;48.73;;;27.97;;
20245;SDS011;10281;54.406;18.556;2022-11-20T14:04:56;50.33;;;28.77;;
20245;SDS011;10281;54.406;18.556;2022-11-20T14:07:27;46.53;;;27.67;;
20245;SDS011;10281;54.406;18.556;2022-11-20T14:09:56;46.57;;;26.40;;
20245;SDS011;10281;54.406;18.556;2022-11-20T14:12:27;44.73;;;26.50;;
20245;SDS011;10281;54.406;18.556;2022-11-20T14:14:57;46.70;;;26.33;;
20245;SDS011;10281;54.406;18.556;2022-11-20T14:17:32;47.37;;;27.17;;
20245;SDS011;10281;54.406;18.556;2022-11-20T14:20:01;46.57;;;26.70;;
20245;SDS011;10281;54.406;18.556;2022-11-20T14:22:32;45.43;;;27.47;;
20245;SDS011;10281;54.406;18.556;2022-11-20T14:25:05;53.23;;;30.40;;
20245;SDS011;10281;54.406;18.556;2022-11-20T14:27:36;46.97;;;28.63;;
20245;SDS011;10281;54.406;18.556;2022-11-20T14:30:05;47.30;;;27.40;;
20245;SDS011;10281;54.406;18.556;2022-11-20T14:32:34;49.83;;;28.93;;
20245;SDS011;10281;54.406;18.556;2022-11-20T14:35:02;52.20;;;28.87;;
20245;SDS011;10281;54.406;18.556;2022-11-20T14:37:36;49.20;;;28.17;;
20245;SDS011;10281;54.406;18.556;2022-11-20T14:40:05;83.20;;;38.80;;
20245;SDS011;10281;54.406;18.556;2022-11-20T14:42:43;54.80;;;30.60;;
20245;SDS011;10281;54.406;18.556;2022-11-20T14:45:11;51.50;;;29.67;;
20245;SDS011;10281;54.406;18.556;2022-11-20T14:47:38;46.30;;;27.70;;
20245;SDS011;10281;54.406;18.556;2022-11-20T14:50:07;51.90;;;29.13;;
20245;SDS011;10281;54.406;18.556;2022-11-20T14:52:50;48.93;;;30.10;;
20245;SDS011;10281;54.406;18.556;2022-11-20T14:55:25;52.87;;;31.03;;